sensor_id;sensor_type;location;lat;lon;timestamp;P1;durP1;ratioP1;P2;durP2;ratioP2
23539;SDS011;11947;50.810;4.394;2022-08-26T00:01:19;9.05;;;2.50;;
23539;SDS011;11947;50.810;4.394;2022-08-26T00:03:45;8.32;;;2.00;;
23539;SDS011;11947;50.810;4.394;2022-08-26T00:06:11;11.75;;;2.75;;
23539;SDS011;11947;50.810;4.394;2022-08-26T00:08:37;12.60;;;1.95;;
23539;SDS011;11947;50.810;4.394;2022-08-26T00:11:03;8.93;;;1.98;;
23539;SDS011;11947;50.810;4.394;2022-08-26T00:13:29;10.82;;;2.38;;
23539;SDS011;11947;50.810;4.394;2022-08-26T00:15:55;9.82;;;2.33;;
23539;SDS011;11947;50.810;4.394;2022-08-26T00:18:21;10.52;;;2.20;;
23539;SDS011;11947;50.810;4.394;2022-08-26T00:20:47;9.05;;;2.50;;
23539;SDS011;11947;50.810;4.394;2022-08-26T00:23:12;13.25;;;2.30;;
23539;SDS011;11947;50.810;4.394;2022-08-26T00:25:39;7.60;;;2.20;;
23539;SDS011;11947;50.810;4.394;2022-08-26T00:28:04;13.05;;;1.95;;
23539;SDS011;11947;50.810;4.394;2022-08-26T00:30:31;8.57;;;2.10;;
23539;SDS011;11947;50.810;4.394;2022-08-26T00:32:58;8.57;;;1.80;;
23539;SDS011;11947;50.810;4.394;2022-08-26T00:35:24;10.40;;;2.33;;
23539;SDS011;11947;50.810;4.394;2022-08-26T00:37:50;8.75;;;1.67;;
23539;SDS011;11947;50.810;4.394;2022-08-26T00:40:18;10.73;;;1.98;;
23539;SDS011;11947;50.810;4.394;2022-08-26T00:42:47;6.22;;;1.58;;
23539;SDS011;11947;50.810;4.394;2022-08-26T00:45:14;9.52;;;1.77;;
23539;SDS011;11947;50.810;4.394;2022-08-26T00:47:50;9.75;;;1.77;;
23539;SDS011;11947;50.810;4.394;2022-08-26T00:50:21;6.25;;;1.50;;
23539;SDS011;11947;50.810;4.394;2022-08-26T00:52:51;12.60;;;1.73;;
23539;SDS011;11947;50.810;4.394;2022-08-26T00:55:30;9.32;;;1.90;;
23539;SDS011;11947;50.810;4.394;2022-08-26T00:58:00;6.03;;;1.70;;
23539;SDS011;11947;50.810;4.394;2022-08-26T01:00:27;10.75;;;1.50;;
23539;SDS011;11947;50.810;4.394;2022-08-26T01:02:55;7.35;;;1.50;;
23539;SDS011;11947;50.810;4.394;2022-08-26T01:05:22;3.33;;;1.50;;
23539;SDS011;11947;50.810;4.394;2022-08-26T01:07:49;9.05;;;1.55;;
23539;SDS011;11947;50.810;4.394;2022-08-26T01:10:17;7.88;;;1.80;;
23539;SDS011;11947;50.810;4.394;2022-08-26T01:12:48;7.60;;;1.58;;
23539;SDS011;11947;50.810;4.394;2022-08-26T01:15:24;9.87;;;1.97;;
23539;SDS011;11947;50.810;4.394;2022-08-26T01:17:55;6.70;;;1.70;;
23539;SDS011;11947;50.810;4.394;2022-08-26T01:20:25;5.75;;;1.60;;
23539;SDS011;11947;50.810;4.394;2022-08-26T01:23:02;5.60;;;1.70;;
23539;SDS011;11947;50.810;4.394;2022-08-26T01:25:31;5.60;;;1.65;;
23539;SDS011;11947;50.810;4.394;2022-08-26T01:27:59;7.82;;;1.77;;
23539;SDS011;11947;50.810;4.394;2022-08-26T01:30:29;12.77;;;1.98;;
23539;SDS011;11947;50.810;4.394;2022-08-26T01:32:56;8.07;;;2.00;;
23539;SDS011;11947;50.810;4.394;2022-08-26T01:35:25;5.72;;;2.00;;
23539;SDS011;11947;50.810;4.394;2022-08-26T01:37:52;10.18;;;1.98;;
23539;SDS011;11947;50.810;4.394;2022-08-26T01:40:23;8.10;;;2.33;;
23539;SDS011;11947;50.810;4.394;2022-08-26T01:42:53;8.10;;;2.30;;
23539;SDS011;11947;50.810;4.394;2022-08-26T01:45:23;13.77;;;2.30;;
23539;SDS011;11947;50.810;4.394;2022-08-26T01:47:52;7.97;;;1.85;;
23539;SDS011;11947;50.810;4.394;2022-08-26T01:50:25;10.45;;;1.88;;
23539;SDS011;11947;50.810;4.394;2022-08-26T01:52:54;6.43;;;1.80;;
23539;SDS011;11947;50.810;4.394;2022-08-26T01:55:22;8.45;;;1.92;;
23539;SDS011;11947;50.810;4.394;2022-08-26T01:57:49;7.18;;;1.90;;
23539;SDS011;11947;50.810;4.394;2022-08-26T02:00:17;6.80;;;1.90;;
23539;SDS011;11947;50.810;4.394;2022-08-26T02:02:43;9.70;;;2.03;;
23539;SDS011;11947;50.810;4.394;2022-08-26T02:05:16;9.55;;;2.15;;
23539;SDS011;11947;50.810;4.394;2022-08-26T02:07:44;5.63;;;1.60;;
23539;SDS011;11947;50.810;4.394;2022-08-26T02:10:12;10.95;;;2.10;;
23539;SDS011;11947;50.810;4.394;2022-08-26T02:12:38;9.52;;;2.00;;
23539;SDS011;11947;50.810;4.394;2022-08-26T02:15:05;8.93;;;2.13;;
23539;SDS011;11947;50.810;4.394;2022-08-26T02:17:34;7.07;;;1.90;;
23539;SDS011;11947;50.810;4.394;2022-08-26T02:20:04;10.95;;;1.90;;
23539;SDS011;11947;50.810;4.394;2022-08-26T02:22:31;8.13;;;1.80;;
23539;SDS011;11947;50.810;4.394;2022-08-26T02:24:58;9.85;;;2.25;;
23539;SDS011;11947;50.810;4.394;2022-08-26T02:27:44;8.23;;;1.98;;
23539;SDS011;11947;50.810;4.394;2022-08-26T02:32:42;6.70;;;1.85;;
23539;SDS011;11947;50.810;4.394;2022-08-26T02:35:09;13.52;;;1.90;;
23539;SDS011;11947;50.810;4.394;2022-08-26T02:37:37;8.63;;;1.63;;
23539;SDS011;11947;50.810;4.394;2022-08-26T02:40:04;7.53;;;1.90;;
23539;SDS011;11947;50.810;4.394;2022-08-26T02:42:31;8.02;;;1.58;;
23539;SDS011;11947;50.810;4.394;2022-08-26T02:44:58;6.82;;;1.58;;
23539;SDS011;11947;50.810;4.394;2022-08-26T02:47:23;8.35;;;1.92;;
23539;SDS011;11947;50.810;4.394;2022-08-26T02:49:49;10.07;;;2.05;;
23539;SDS011;11947;50.810;4.394;2022-08-26T02:52:15;8.75;;;1.90;;
23539;SDS011;11947;50.810;4.394;2022-08-26T02:54:41;8.05;;;2.20;;
23539;SDS011;11947;50.810;4.394;2022-08-26T02:57:08;8.73;;;2.00;;
23539;SDS011;11947;50.810;4.394;2022-08-26T02:59:34;4.20;;;1.90;;
23539;SDS011;11947;50.810;4.394;2022-08-26T03:02:00;8.48;;;1.85;;
23539;SDS011;11947;50.810;4.394;2022-08-26T03:04:26;3.88;;;1.42;;
23539;SDS011;11947;50.810;4.394;2022-08-26T03:06:52;11.52;;;2.10;;
23539;SDS011;11947;50.810;4.394;2022-08-26T03:09:18;5.07;;;2.15;;
23539;SDS011;11947;50.810;4.394;2022-08-26T03:11:44;8.35;;;2.10;;
23539;SDS011;11947;50.810;4.394;2022-08-26T03:14:11;9.13;;;2.10;;
23539;SDS011;11947;50.810;4.394;2022-08-26T03:16:37;5.97;;;1.75;;
23539;SDS011;11947;50.810;4.394;2022-08-26T03:19:05;6.65;;;2.05;;
23539;SDS011;11947;50.810;4.394;2022-08-26T03:21:32;9.13;;;2.10;;
23539;SDS011;11947;50.810;4.394;2022-08-26T03:23:59;7.70;;;2.47;;
23539;SDS011;11947;50.810;4.394;2022-08-26T03:26:25;5.07;;;1.70;;
23539;SDS011;11947;50.810;4.394;2022-08-26T03:28:51;10.63;;;2.15;;
23539;SDS011;11947;50.810;4.394;2022-08-26T03:31:35;5.68;;;1.80;;
23539;SDS011;11947;50.810;4.394;2022-08-26T03:34:01;7.93;;;2.00;;
23539;SDS011;11947;50.810;4.394;2022-08-26T03:36:28;6.28;;;1.90;;
23539;SDS011;11947;50.810;4.394;2022-08-26T03:38:54;5.78;;;1.90;;
23539;SDS011;11947;50.810;4.394;2022-08-26T03:41:19;8.45;;;1.88;;
23539;SDS011;11947;50.810;4.394;2022-08-26T03:43:45;7.28;;;1.67;;
23539;SDS011;11947;50.810;4.394;2022-08-26T03:46:12;6.25;;;1.83;;
23539;SDS011;11947;50.810;4.394;2022-08-26T03:48:38;7.95;;;2.00;;
23539;SDS011;11947;50.810;4.394;2022-08-26T03:51:09;7.20;;;1.70;;
23539;SDS011;11947;50.810;4.394;2022-08-26T03:56:02;8.57;;;1.77;;
23539;SDS011;11947;50.810;4.394;2022-08-26T03:58:28;5.85;;;1.70;;
23539;SDS011;11947;50.810;4.394;2022-08-26T04:00:56;4.90;;;1.70;;
23539;SDS011;11947;50.810;4.394;2022-08-26T04:03:22;6.55;;;1.90;;
23539;SDS011;11947;50.810;4.394;2022-08-26T04:06:06;8.85;;;1.73;;
23539;SDS011;11947;50.810;4.394;2022-08-26T04:08:32;7.35;;;1.60;;
23539;SDS011;11947;50.810;4.394;2022-08-26T04:10:57;5.53;;;1.45;;
23539;SDS011;11947;50.810;4.394;2022-08-26T04:13:25;2.85;;;1.33;;
23539;SDS011;11947;50.810;4.394;2022-08-26T04:15:51;8.25;;;1.58;;
23539;SDS011;11947;50.810;4.394;2022-08-26T04:18:17;7.40;;;1.30;;
23539;SDS011;11947;50.810;4.394;2022-08-26T04:20:42;3.55;;;1.30;;
23539;SDS011;11947;50.810;4.394;2022-08-26T04:23:08;6.60;;;1.50;;
23539;SDS011;11947;50.810;4.394;2022-08-26T04:25:34;7.57;;;1.70;;
23539;SDS011;11947;50.810;4.394;2022-08-26T04:27:59;7.95;;;1.55;;
23539;SDS011;11947;50.810;4.394;2022-08-26T04:30:25;5.80;;;2.00;;
23539;SDS011;11947;50.810;4.394;2022-08-26T04:32:51;6.50;;;1.98;;
23539;SDS011;11947;50.810;4.394;2022-08-26T04:35:17;8.80;;;1.60;;
23539;SDS011;11947;50.810;4.394;2022-08-26T04:37:42;7.07;;;1.60;;
23539;SDS011;11947;50.810;4.394;2022-08-26T04:40:08;8.80;;;2.10;;
23539;SDS011;11947;50.810;4.394;2022-08-26T04:42:34;8.25;;;1.60;;
23539;SDS011;11947;50.810;4.394;2022-08-26T04:45:00;7.68;;;1.70;;
23539;SDS011;11947;50.810;4.394;2022-08-26T04:47:27;9.73;;;1.80;;
23539;SDS011;11947;50.810;4.394;2022-08-26T04:49:53;14.15;;;2.20;;
23539;SDS011;11947;50.810;4.394;2022-08-26T04:52:19;11.73;;;1.90;;
23539;SDS011;11947;50.810;4.394;2022-08-26T04:54:45;6.50;;;2.00;;
23539;SDS011;11947;50.810;4.394;2022-08-26T04:57:10;7.78;;;1.75;;
23539;SDS011;11947;50.810;4.394;2022-08-26T04:59:36;8.60;;;2.20;;
23539;SDS011;11947;50.810;4.394;2022-08-26T05:02:02;11.32;;;1.92;;
23539;SDS011;11947;50.810;4.394;2022-08-26T05:04:28;7.00;;;1.70;;
23539;SDS011;11947;50.810;4.394;2022-08-26T05:06:54;7.13;;;1.60;;
23539;SDS011;11947;50.810;4.394;2022-08-26T05:09:20;9.20;;;2.05;;
23539;SDS011;11947;50.810;4.394;2022-08-26T05:11:45;5.78;;;1.40;;
23539;SDS011;11947;50.810;4.394;2022-08-26T05:14:12;4.40;;;1.70;;
23539;SDS011;11947;50.810;4.394;2022-08-26T05:16:39;9.27;;;1.70;;
23539;SDS011;11947;50.810;4.394;2022-08-26T05:19:04;13.85;;;2.17;;
23539;SDS011;11947;50.810;4.394;2022-08-26T05:21:31;8.38;;;1.60;;
23539;SDS011;11947;50.810;4.394;2022-08-26T05:23:57;6.55;;;1.92;;
23539;SDS011;11947;50.810;4.394;2022-08-26T05:26:25;9.02;;;1.60;;
23539;SDS011;11947;50.810;4.394;2022-08-26T05:28:53;7.30;;;1.33;;
23539;SDS011;11947;50.810;4.394;2022-08-26T05:31:24;7.47;;;1.67;;
23539;SDS011;11947;50.810;4.394;2022-08-26T05:33:52;10.68;;;2.03;;
23539;SDS011;11947;50.810;4.394;2022-08-26T05:36:19;11.52;;;1.65;;
23539;SDS011;11947;50.810;4.394;2022-08-26T05:38:46;9.95;;;1.60;;
23539;SDS011;11947;50.810;4.394;2022-08-26T05:41:17;9.82;;;1.90;;
23539;SDS011;11947;50.810;4.394;2022-08-26T05:43:44;9.25;;;1.50;;
23539;SDS011;11947;50.810;4.394;2022-08-26T05:46:10;12.48;;;1.65;;
23539;SDS011;11947;50.810;4.394;2022-08-26T05:48:36;7.88;;;1.73;;
23539;SDS011;11947;50.810;4.394;2022-08-26T05:51:09;8.93;;;1.50;;
23539;SDS011;11947;50.810;4.394;2022-08-26T05:53:35;13.63;;;1.70;;
23539;SDS011;11947;50.810;4.394;2022-08-26T05:56:03;11.35;;;1.77;;
23539;SDS011;11947;50.810;4.394;2022-08-26T05:58:30;7.88;;;1.85;;
23539;SDS011;11947;50.810;4.394;2022-08-26T06:01:06;8.05;;;1.40;;
23539;SDS011;11947;50.810;4.394;2022-08-26T06:03:35;11.13;;;1.77;;
23539;SDS011;11947;50.810;4.394;2022-08-26T06:06:04;4.28;;;1.33;;
23539;SDS011;11947;50.810;4.394;2022-08-26T06:08:31;8.93;;;2.03;;
23539;SDS011;11947;50.810;4.394;2022-08-26T06:10:59;7.50;;;1.30;;
23539;SDS011;11947;50.810;4.394;2022-08-26T06:13:27;7.88;;;1.50;;
23539;SDS011;11947;50.810;4.394;2022-08-26T06:15:53;6.03;;;1.42;;
23539;SDS011;11947;50.810;4.394;2022-08-26T06:18:27;6.55;;;1.65;;
23539;SDS011;11947;50.810;4.394;2022-08-26T06:20:57;6.45;;;1.60;;
23539;SDS011;11947;50.810;4.394;2022-08-26T06:23:23;6.53;;;1.58;;
23539;SDS011;11947;50.810;4.394;2022-08-26T06:26:09;6.63;;;1.60;;
23539;SDS011;11947;50.810;4.394;2022-08-26T06:28:35;8.73;;;1.90;;
23539;SDS011;11947;50.810;4.394;2022-08-26T06:31:01;8.02;;;1.75;;
23539;SDS011;11947;50.810;4.394;2022-08-26T06:33:27;9.43;;;2.05;;
23539;SDS011;11947;50.810;4.394;2022-08-26T06:35:53;12.57;;;1.77;;
23539;SDS011;11947;50.810;4.394;2022-08-26T06:38:19;5.65;;;1.58;;
23539;SDS011;11947;50.810;4.394;2022-08-26T06:40:46;6.57;;;1.48;;
23539;SDS011;11947;50.810;4.394;2022-08-26T06:43:14;14.10;;;1.70;;
23539;SDS011;11947;50.810;4.394;2022-08-26T06:45:42;8.77;;;1.83;;
23539;SDS011;11947;50.810;4.394;2022-08-26T06:48:12;7.65;;;1.50;;
23539;SDS011;11947;50.810;4.394;2022-08-26T06:50:39;10.43;;;1.70;;
23539;SDS011;11947;50.810;4.394;2022-08-26T06:53:05;15.48;;;1.90;;
23539;SDS011;11947;50.810;4.394;2022-08-26T06:55:32;6.93;;;1.60;;
23539;SDS011;11947;50.810;4.394;2022-08-26T06:58:02;8.50;;;1.55;;
23539;SDS011;11947;50.810;4.394;2022-08-26T07:00:28;12.80;;;1.70;;
23539;SDS011;11947;50.810;4.394;2022-08-26T07:02:56;8.23;;;2.40;;
23539;SDS011;11947;50.810;4.394;2022-08-26T07:05:21;8.32;;;1.50;;
23539;SDS011;11947;50.810;4.394;2022-08-26T07:07:49;13.13;;;1.70;;
23539;SDS011;11947;50.810;4.394;2022-08-26T07:10:16;8.50;;;1.98;;
23539;SDS011;11947;50.810;4.394;2022-08-26T07:12:42;6.63;;;1.48;;
23539;SDS011;11947;50.810;4.394;2022-08-26T07:15:08;7.70;;;1.35;;
23539;SDS011;11947;50.810;4.394;2022-08-26T07:17:34;8.68;;;1.48;;
23539;SDS011;11947;50.810;4.394;2022-08-26T07:20:00;9.70;;;1.52;;
23539;SDS011;11947;50.810;4.394;2022-08-26T07:22:27;13.05;;;1.80;;
23539;SDS011;11947;50.810;4.394;2022-08-26T07:24:53;9.82;;;1.70;;
23539;SDS011;11947;50.810;4.394;2022-08-26T07:27:18;6.15;;;1.63;;
23539;SDS011;11947;50.810;4.394;2022-08-26T07:29:44;7.68;;;1.33;;
23539;SDS011;11947;50.810;4.394;2022-08-26T07:32:11;9.35;;;1.80;;
23539;SDS011;11947;50.810;4.394;2022-08-26T07:34:38;9.95;;;1.70;;
23539;SDS011;11947;50.810;4.394;2022-08-26T07:37:04;9.75;;;1.98;;
23539;SDS011;11947;50.810;4.394;2022-08-26T07:39:30;13.30;;;2.08;;
23539;SDS011;11947;50.810;4.394;2022-08-26T07:41:57;8.23;;;1.50;;
23539;SDS011;11947;50.810;4.394;2022-08-26T07:44:26;11.30;;;1.70;;
23539;SDS011;11947;50.810;4.394;2022-08-26T07:46:52;12.48;;;1.95;;
23539;SDS011;11947;50.810;4.394;2022-08-26T07:49:17;12.73;;;1.73;;
23539;SDS011;11947;50.810;4.394;2022-08-26T07:51:43;12.57;;;1.80;;
23539;SDS011;11947;50.810;4.394;2022-08-26T07:54:09;11.93;;;1.67;;
23539;SDS011;11947;50.810;4.394;2022-08-26T07:56:35;12.57;;;1.60;;
23539;SDS011;11947;50.810;4.394;2022-08-26T07:59:01;6.10;;;1.75;;
23539;SDS011;11947;50.810;4.394;2022-08-26T08:01:27;9.75;;;1.60;;
23539;SDS011;11947;50.810;4.394;2022-08-26T08:03:55;8.93;;;1.70;;
23539;SDS011;11947;50.810;4.394;2022-08-26T08:06:22;7.78;;;1.38;;
23539;SDS011;11947;50.810;4.394;2022-08-26T08:08:49;11.70;;;1.50;;
23539;SDS011;11947;50.810;4.394;2022-08-26T08:11:16;12.25;;;1.60;;
23539;SDS011;11947;50.810;4.394;2022-08-26T08:13:45;4.90;;;1.58;;
23539;SDS011;11947;50.810;4.394;2022-08-26T08:16:11;8.07;;;1.48;;
23539;SDS011;11947;50.810;4.394;2022-08-26T08:18:37;8.98;;;1.52;;
23539;SDS011;11947;50.810;4.394;2022-08-26T08:21:04;6.07;;;1.40;;
23539;SDS011;11947;50.810;4.394;2022-08-26T08:23:30;7.65;;;1.38;;
23539;SDS011;11947;50.810;4.394;2022-08-26T08:26:00;6.10;;;1.58;;
23539;SDS011;11947;50.810;4.394;2022-08-26T08:28:28;3.20;;;1.27;;
23539;SDS011;11947;50.810;4.394;2022-08-26T08:30:54;14.35;;;1.52;;
23539;SDS011;11947;50.810;4.394;2022-08-26T08:33:20;7.30;;;1.55;;
23539;SDS011;11947;50.810;4.394;2022-08-26T08:35:46;7.80;;;1.42;;
23539;SDS011;11947;50.810;4.394;2022-08-26T08:38:13;10.50;;;1.77;;
23539;SDS011;11947;50.810;4.394;2022-08-26T08:40:40;8.32;;;1.60;;
23539;SDS011;11947;50.810;4.394;2022-08-26T08:43:16;15.65;;;1.70;;
23539;SDS011;11947;50.810;4.394;2022-08-26T08:46:06;6.95;;;1.55;;
23539;SDS011;11947;50.810;4.394;2022-08-26T08:48:37;11.32;;;1.58;;
23539;SDS011;11947;50.810;4.394;2022-08-26T08:53:51;8.63;;;1.15;;
23539;SDS011;11947;50.810;4.394;2022-08-26T08:56:22;7.05;;;1.40;;
23539;SDS011;11947;50.810;4.394;2022-08-26T09:01:33;10.52;;;1.20;;
23539;SDS011;11947;50.810;4.394;2022-08-26T09:06:54;7.80;;;1.33;;
23539;SDS011;11947;50.810;4.394;2022-08-26T09:09:36;9.63;;;1.35;;
23539;SDS011;11947;50.810;4.394;2022-08-26T09:12:06;8.88;;;1.70;;
23539;SDS011;11947;50.810;4.394;2022-08-26T09:14:46;4.53;;;1.33;;
23539;SDS011;11947;50.810;4.394;2022-08-26T09:19:44;8.93;;;1.73;;
23539;SDS011;11947;50.810;4.394;2022-08-26T09:22:30;8.93;;;1.70;;
23539;SDS011;11947;50.810;4.394;2022-08-26T09:24:57;4.43;;;1.65;;
23539;SDS011;11947;50.810;4.394;2022-08-26T09:27:37;9.98;;;1.70;;
23539;SDS011;11947;50.810;4.394;2022-08-26T09:30:14;10.65;;;1.98;;
23539;SDS011;11947;50.810;4.394;2022-08-26T09:33:00;5.55;;;1.45;;
23539;SDS011;11947;50.810;4.394;2022-08-26T09:35:30;9.85;;;1.85;;
23539;SDS011;11947;50.810;4.394;2022-08-26T09:37:59;7.47;;;1.80;;
23539;SDS011;11947;50.810;4.394;2022-08-26T09:40:32;4.88;;;1.77;;
23539;SDS011;11947;50.810;4.394;2022-08-26T09:43:06;4.38;;;1.70;;
23539;SDS011;11947;50.810;4.394;2022-08-26T09:45:41;5.68;;;1.70;;
23539;SDS011;11947;50.810;4.394;2022-08-26T09:48:22;9.45;;;1.70;;
23539;SDS011;11947;50.810;4.394;2022-08-26T09:53:18;9.98;;;1.73;;
23539;SDS011;11947;50.810;4.394;2022-08-26T09:55:51;8.35;;;1.50;;
23539;SDS011;11947;50.810;4.394;2022-08-26T09:58:34;8.10;;;1.88;;
23539;SDS011;11947;50.810;4.394;2022-08-26T10:01:02;9.63;;;2.10;;
23539;SDS011;11947;50.810;4.394;2022-08-26T10:03:34;9.47;;;2.13;;
23539;SDS011;11947;50.810;4.394;2022-08-26T10:06:11;8.32;;;1.67;;
23539;SDS011;11947;50.810;4.394;2022-08-26T10:08:50;6.25;;;1.67;;
23539;SDS011;11947;50.810;4.394;2022-08-26T10:13:50;4.03;;;1.15;;
23539;SDS011;11947;50.810;4.394;2022-08-26T10:16:23;6.35;;;1.33;;
23539;SDS011;11947;50.810;4.394;2022-08-26T10:24:04;5.07;;;1.10;;
23539;SDS011;11947;50.810;4.394;2022-08-26T10:29:30;6.25;;;1.10;;
23539;SDS011;11947;50.810;4.394;2022-08-26T10:32:08;5.05;;;1.00;;
23539;SDS011;11947;50.810;4.394;2022-08-26T10:34:38;4.80;;;1.10;;
23539;SDS011;11947;50.810;4.394;2022-08-26T10:37:09;7.03;;;1.17;;
23539;SDS011;11947;50.810;4.394;2022-08-26T10:39:51;4.60;;;1.25;;
23539;SDS011;11947;50.810;4.394;2022-08-26T10:42:39;4.40;;;1.10;;
23539;SDS011;11947;50.810;4.394;2022-08-26T10:45:30;2.90;;;1.20;;
23539;SDS011;11947;50.810;4.394;2022-08-26T10:48:00;3.38;;;1.60;;
23539;SDS011;11947;50.810;4.394;2022-08-26T10:51:03;4.95;;;1.25;;
23539;SDS011;11947;50.810;4.394;2022-08-26T11:02:09;4.10;;;1.23;;
23539;SDS011;11947;50.810;4.394;2022-08-26T11:10:09;2.33;;;1.10;;
23539;SDS011;11947;50.810;4.394;2022-08-26T11:18:08;5.65;;;0.75;;
23539;SDS011;11947;50.810;4.394;2022-08-26T11:26:11;2.08;;;0.88;;
23539;SDS011;11947;50.810;4.394;2022-08-26T11:31:04;4.25;;;0.80;;
23539;SDS011;11947;50.810;4.394;2022-08-26T11:36:08;5.50;;;0.95;;
23539;SDS011;11947;50.810;4.394;2022-08-26T11:38:39;4.18;;;1.10;;
23539;SDS011;11947;50.810;4.394;2022-08-26T11:41:15;3.58;;;0.82;;
23539;SDS011;11947;50.810;4.394;2022-08-26T11:43:43;4.32;;;0.98;;
23539;SDS011;11947;50.810;4.394;2022-08-26T11:46:13;3.35;;;1.00;;
23539;SDS011;11947;50.810;4.394;2022-08-26T11:48:48;8.38;;;1.40;;
23539;SDS011;11947;50.810;4.394;2022-08-26T11:51:21;4.47;;;1.42;;
23539;SDS011;11947;50.810;4.394;2022-08-26T11:53:48;5.78;;;1.63;;
23539;SDS011;11947;50.810;4.394;2022-08-26T11:58:56;5.93;;;1.30;;
23539;SDS011;11947;50.810;4.394;2022-08-26T12:01:31;3.08;;;1.42;;
23539;SDS011;11947;50.810;4.394;2022-08-26T12:04:02;3.72;;;1.10;;
23539;SDS011;11947;50.810;4.394;2022-08-26T12:06:36;3.00;;;1.20;;
23539;SDS011;11947;50.810;4.394;2022-08-26T12:09:13;8.57;;;1.17;;
23539;SDS011;11947;50.810;4.394;2022-08-26T12:11:49;6.95;;;1.40;;
23539;SDS011;11947;50.810;4.394;2022-08-26T12:14:24;2.35;;;0.95;;
23539;SDS011;11947;50.810;4.394;2022-08-26T12:16:50;3.63;;;1.40;;
23539;SDS011;11947;50.810;4.394;2022-08-26T12:22:07;4.13;;;1.05;;
23539;SDS011;11947;50.810;4.394;2022-08-26T12:25:06;8.27;;;1.33;;
23539;SDS011;11947;50.810;4.394;2022-08-26T12:27:34;3.47;;;0.98;;
23539;SDS011;11947;50.810;4.394;2022-08-26T12:30:07;5.75;;;1.27;;
23539;SDS011;11947;50.810;4.394;2022-08-26T12:32:33;1.85;;;1.02;;
23539;SDS011;11947;50.810;4.394;2022-08-26T12:35:01;3.00;;;1.17;;
23539;SDS011;11947;50.810;4.394;2022-08-26T12:37:31;4.10;;;1.40;;
23539;SDS011;11947;50.810;4.394;2022-08-26T12:42:59;4.15;;;1.75;;
23539;SDS011;11947;50.810;4.394;2022-08-26T12:45:28;2.60;;;1.50;;
23539;SDS011;11947;50.810;4.394;2022-08-26T12:47:58;4.25;;;1.33;;
23539;SDS011;11947;50.810;4.394;2022-08-26T12:50:35;2.60;;;1.50;;
23539;SDS011;11947;50.810;4.394;2022-08-26T13:08:50;5.70;;;1.88;;
23539;SDS011;11947;50.810;4.394;2022-08-26T13:11:22;11.35;;;2.08;;
23539;SDS011;11947;50.810;4.394;2022-08-26T13:16:32;4.80;;;1.90;;
23539;SDS011;11947;50.810;4.394;2022-08-26T13:19:00;5.57;;;2.20;;
23539;SDS011;11947;50.810;4.394;2022-08-26T13:21:30;9.02;;;2.50;;
23539;SDS011;11947;50.810;4.394;2022-08-26T13:24:02;3.97;;;2.28;;
23539;SDS011;11947;50.810;4.394;2022-08-26T13:26:35;9.13;;;2.38;;
23539;SDS011;11947;50.810;4.394;2022-08-26T13:29:02;5.15;;;1.98;;
23539;SDS011;11947;50.810;4.394;2022-08-26T13:31:29;8.73;;;2.42;;
23539;SDS011;11947;50.810;4.394;2022-08-26T13:33:56;7.05;;;2.08;;
23539;SDS011;11947;50.810;4.394;2022-08-26T13:36:22;5.65;;;2.25;;
23539;SDS011;11947;50.810;4.394;2022-08-26T13:38:48;2.70;;;1.70;;
23539;SDS011;11947;50.810;4.394;2022-08-26T13:41:13;3.35;;;1.88;;
23539;SDS011;11947;50.810;4.394;2022-08-26T13:43:40;7.43;;;1.88;;
23539;SDS011;11947;50.810;4.394;2022-08-26T13:46:06;8.95;;;1.40;;
23539;SDS011;11947;50.810;4.394;2022-08-26T13:48:31;4.90;;;1.60;;
23539;SDS011;11947;50.810;4.394;2022-08-26T13:50:58;3.65;;;1.40;;
23539;SDS011;11947;50.810;4.394;2022-08-26T13:53:26;7.93;;;1.60;;
23539;SDS011;11947;50.810;4.394;2022-08-26T13:55:54;7.20;;;1.45;;
23539;SDS011;11947;50.810;4.394;2022-08-26T13:58:20;5.22;;;1.23;;
23539;SDS011;11947;50.810;4.394;2022-08-26T14:00:46;3.75;;;1.35;;
23539;SDS011;11947;50.810;4.394;2022-08-26T14:03:11;5.82;;;1.40;;
23539;SDS011;11947;50.810;4.394;2022-08-26T14:05:38;3.65;;;1.58;;
23539;SDS011;11947;50.810;4.394;2022-08-26T14:08:04;6.00;;;1.42;;
23539;SDS011;11947;50.810;4.394;2022-08-26T14:10:30;8.18;;;1.33;;
23539;SDS011;11947;50.810;4.394;2022-08-26T14:12:55;4.88;;;1.40;;
23539;SDS011;11947;50.810;4.394;2022-08-26T14:15:21;2.83;;;1.10;;
23539;SDS011;11947;50.810;4.394;2022-08-26T14:17:47;4.30;;;1.40;;
23539;SDS011;11947;50.810;4.394;2022-08-26T14:20:15;7.45;;;1.40;;
23539;SDS011;11947;50.810;4.394;2022-08-26T14:22:51;5.60;;;1.33;;
23539;SDS011;11947;50.810;4.394;2022-08-26T14:25:18;3.42;;;1.15;;
23539;SDS011;11947;50.810;4.394;2022-08-26T14:27:44;4.93;;;1.63;;
23539;SDS011;11947;50.810;4.394;2022-08-26T14:30:09;7.15;;;1.70;;
23539;SDS011;11947;50.810;4.394;2022-08-26T14:32:36;4.70;;;1.70;;
23539;SDS011;11947;50.810;4.394;2022-08-26T14:35:04;5.45;;;1.50;;
23539;SDS011;11947;50.810;4.394;2022-08-26T14:37:30;3.95;;;1.70;;
23539;SDS011;11947;50.810;4.394;2022-08-26T14:39:56;6.97;;;1.95;;
23539;SDS011;11947;50.810;4.394;2022-08-26T14:42:22;5.15;;;1.40;;
23539;SDS011;11947;50.810;4.394;2022-08-26T14:44:53;8.88;;;1.70;;
23539;SDS011;11947;50.810;4.394;2022-08-26T14:47:21;11.13;;;1.63;;
23539;SDS011;11947;50.810;4.394;2022-08-26T14:49:46;9.60;;;1.40;;
23539;SDS011;11947;50.810;4.394;2022-08-26T14:52:12;5.28;;;1.40;;
23539;SDS011;11947;50.810;4.394;2022-08-26T14:54:37;10.25;;;1.65;;
23539;SDS011;11947;50.810;4.394;2022-08-26T14:57:05;15.45;;;2.20;;
23539;SDS011;11947;50.810;4.394;2022-08-26T14:59:33;4.05;;;1.50;;
23539;SDS011;11947;50.810;4.394;2022-08-26T15:02:01;4.20;;;1.50;;
23539;SDS011;11947;50.810;4.394;2022-08-26T15:04:28;4.43;;;1.33;;
23539;SDS011;11947;50.810;4.394;2022-08-26T15:06:54;6.80;;;1.60;;
23539;SDS011;11947;50.810;4.394;2022-08-26T15:09:21;4.60;;;1.38;;
23539;SDS011;11947;50.810;4.394;2022-08-26T15:11:47;3.78;;;1.40;;
23539;SDS011;11947;50.810;4.394;2022-08-26T15:14:14;5.22;;;1.50;;
23539;SDS011;11947;50.810;4.394;2022-08-26T15:16:41;5.60;;;1.95;;
23539;SDS011;11947;50.810;4.394;2022-08-26T15:19:07;3.88;;;1.40;;
23539;SDS011;11947;50.810;4.394;2022-08-26T15:21:33;4.93;;;1.52;;
23539;SDS011;11947;50.810;4.394;2022-08-26T15:24:00;3.05;;;1.65;;
23539;SDS011;11947;50.810;4.394;2022-08-26T15:26:27;3.53;;;1.58;;
23539;SDS011;11947;50.810;4.394;2022-08-26T15:28:54;8.80;;;1.70;;
23539;SDS011;11947;50.810;4.394;2022-08-26T15:31:23;4.60;;;1.88;;
23539;SDS011;11947;50.810;4.394;2022-08-26T15:33:55;6.15;;;1.30;;
23539;SDS011;11947;50.810;4.394;2022-08-26T15:36:23;5.22;;;1.63;;
23539;SDS011;11947;50.810;4.394;2022-08-26T15:38:49;6.88;;;1.80;;
23539;SDS011;11947;50.810;4.394;2022-08-26T15:41:15;6.40;;;1.92;;
23539;SDS011;11947;50.810;4.394;2022-08-26T15:43:40;5.22;;;2.72;;
23539;SDS011;11947;50.810;4.394;2022-08-26T15:46:09;5.68;;;2.03;;
23539;SDS011;11947;50.810;4.394;2022-08-26T15:48:35;6.05;;;2.00;;
23539;SDS011;11947;50.810;4.394;2022-08-26T15:51:02;6.18;;;2.17;;
23539;SDS011;11947;50.810;4.394;2022-08-26T15:53:29;9.55;;;2.13;;
23539;SDS011;11947;50.810;4.394;2022-08-26T15:55:56;4.97;;;2.20;;
23539;SDS011;11947;50.810;4.394;2022-08-26T15:58:23;7.95;;;1.52;;
23539;SDS011;11947;50.810;4.394;2022-08-26T16:00:50;8.85;;;2.03;;
23539;SDS011;11947;50.810;4.394;2022-08-26T16:03:16;5.80;;;1.90;;
23539;SDS011;11947;50.810;4.394;2022-08-26T16:05:42;4.10;;;1.88;;
23539;SDS011;11947;50.810;4.394;2022-08-26T16:08:08;7.03;;;1.83;;
23539;SDS011;11947;50.810;4.394;2022-08-26T16:10:35;9.85;;;2.00;;
23539;SDS011;11947;50.810;4.394;2022-08-26T16:13:03;6.43;;;2.10;;
23539;SDS011;11947;50.810;4.394;2022-08-26T16:15:30;5.53;;;1.80;;
23539;SDS011;11947;50.810;4.394;2022-08-26T16:17:58;5.88;;;1.75;;
23539;SDS011;11947;50.810;4.394;2022-08-26T16:20:26;5.13;;;1.65;;